createdAt,value
2023-02-05T00:02:29.223Z,102276.98
2023-02-05T00:04:59.685Z,102277.36
2023-02-05T00:07:30.230Z,102275.88
2023-02-05T00:10:00.678Z,102270.16
2023-02-05T00:12:31.148Z,102270.17
2023-02-05T00:15:01.563Z,102273.02
2023-02-05T00:17:32.121Z,102268.95
2023-02-05T00:20:03.058Z,102271.22
2023-02-05T00:22:33.901Z,102272.30
2023-02-05T00:25:04.856Z,102277.58
2023-02-05T00:27:36.377Z,102280.41
2023-02-05T00:30:08.811Z,102277.05
2023-02-05T00:32:39.241Z,102275.44
2023-02-05T00:35:10.348Z,102277.28
2023-02-05T00:37:41.581Z,102276.67
2023-02-05T00:40:13.609Z,102279.02
2023-02-05T00:42:45.089Z,102278.83
2023-02-05T00:45:15.828Z,102271.17
2023-02-05T00:47:46.243Z,102273.60
2023-02-05T00:50:16.893Z,102274.68
2023-02-05T00:52:47.417Z,102275.59
2023-02-05T00:55:18.189Z,102282.08
2023-02-05T00:57:48.646Z,102279.50
2023-02-05T01:00:20.365Z,102279.63
2023-02-05T01:02:51.053Z,102281.33
2023-02-05T01:05:21.622Z,102281.44
2023-02-05T01:07:52.101Z,102285.12
2023-02-05T01:10:22.523Z,102290.87
2023-02-05T01:12:53.402Z,102288.38
2023-02-05T01:15:24.073Z,102288.41
2023-02-05T01:17:54.875Z,102284.40
2023-02-05T01:20:25.409Z,102285.23
2023-02-05T01:22:56.441Z,102279.95
2023-02-05T01:25:27.273Z,102283.09
2023-02-05T01:27:57.716Z,102279.05
2023-02-05T01:30:28.532Z,102285.91
2023-02-05T01:32:59.582Z,102290.61
2023-02-05T01:35:30.323Z,102287.20
2023-02-05T01:38:00.808Z,102287.46
2023-02-05T01:40:31.268Z,102286.10
2023-02-05T01:43:01.770Z,102284.71
2023-02-05T01:45:51.790Z,102283.70
2023-02-05T01:48:26.265Z,102285.80
2023-02-05T01:51:02.677Z,102286.77
2023-02-05T01:53:36.319Z,102287.64
2023-02-05T01:56:11.557Z,102288.95
2023-02-05T01:58:49.478Z,102289.95
2023-02-05T02:01:20.193Z,102290.86
2023-02-05T02:03:52.514Z,102291.39
2023-02-05T02:06:23.071Z,102286.61
2023-02-05T02:08:54.646Z,102289.80
2023-02-05T02:11:27.377Z,102288.80
2023-02-05T02:14:00.789Z,102290.58
2023-02-05T02:16:31.765Z,102288.75
2023-02-05T02:19:03.881Z,102281.78
2023-02-05T02:22:13.484Z,102281.71
2023-02-05T02:25:16.435Z,102285.27
2023-02-05T02:27:54.968Z,102287.14
2023-02-05T02:30:32.267Z,102288.72
2023-02-05T02:33:10.442Z,102288.10
2023-02-05T02:35:48.448Z,102288.80
2023-02-05T02:38:29.053Z,102288.02
2023-02-05T02:41:06.212Z,102288.30
2023-02-05T02:43:45.439Z,102284.44
2023-02-05T02:46:23.254Z,102282.75
2023-02-05T02:48:58.275Z,102278.05
2023-02-05T02:51:31.685Z,102278.74
2023-02-05T02:54:07.440Z,102275.84
2023-02-05T02:56:41.407Z,102273.97
2023-02-05T02:59:16.338Z,102277.00
2023-02-05T03:01:53.721Z,102280.45
2023-02-05T03:04:28.803Z,102275.34
2023-02-05T03:07:07.828Z,102274.20
2023-02-05T03:09:40.918Z,102279.58
2023-02-05T03:12:11.550Z,102278.15
2023-02-05T03:14:42.389Z,102278.82
2023-02-05T03:17:18.775Z,102279.80
2023-02-05T03:19:54.309Z,102281.48
2023-02-05T03:22:24.801Z,102288.55
2023-02-05T03:24:56.075Z,102296.41
2023-02-05T03:27:26.705Z,102294.84
2023-02-05T03:29:58.598Z,102299.53
2023-02-05T03:32:46.904Z,102300.02
2023-02-05T03:35:27.998Z,102294.52
2023-02-05T03:38:17.452Z,102297.63
2023-02-05T03:40:53.014Z,102297.08
2023-02-05T03:43:34.665Z,102294.17
2023-02-05T03:46:10.593Z,102293.97
2023-02-05T03:48:53.482Z,102294.42
2023-02-05T03:51:34.057Z,102295.91
2023-02-05T03:54:12.858Z,102300.23
2023-02-05T03:56:53.007Z,102300.95
2023-02-05T03:59:25.077Z,102304.79
2023-02-05T04:01:56.343Z,102305.69
2023-02-05T04:04:27.185Z,102301.15
2023-02-05T04:06:59.107Z,102301.65
2023-02-05T04:09:29.712Z,102300.56
2023-02-05T04:12:00.572Z,102297.13
2023-02-05T04:14:32.046Z,102294.86
2023-02-05T04:17:03.328Z,102296.71
2023-02-05T04:19:33.789Z,102298.31
2023-02-05T04:22:04.558Z,102301.23
2023-02-05T04:24:36.780Z,102308.06
2023-02-05T04:27:07.948Z,102307.20
2023-02-05T04:29:39.193Z,102311.11
2023-02-05T04:32:09.976Z,102316.10
2023-02-05T04:34:40.459Z,102313.98
2023-02-05T04:37:11.439Z,102315.45
2023-02-05T04:39:41.919Z,102312.44
2023-02-05T04:42:12.353Z,102310.56
2023-02-05T04:44:42.785Z,102308.81
2023-02-05T04:47:13.570Z,102312.10
2023-02-05T04:49:43.991Z,102309.67
2023-02-05T04:52:14.502Z,102309.40
2023-02-05T04:54:45.115Z,102312.27
2023-02-05T04:57:15.554Z,102316.04
2023-02-05T04:59:46.016Z,102317.42
2023-02-05T05:02:17.148Z,102321.47
2023-02-05T05:04:47.593Z,102324.84
2023-02-05T05:07:18.075Z,102333.09
2023-02-05T05:09:48.498Z,102338.06
2023-02-05T05:12:19.002Z,102341.11
2023-02-05T05:14:49.486Z,102344.89
2023-02-05T05:17:19.919Z,102356.11
2023-02-05T05:19:50.367Z,102355.44
2023-02-05T05:22:20.829Z,102351.33
2023-02-05T05:24:51.234Z,102350.29
2023-02-05T05:27:23.361Z,102352.94
2023-02-05T05:29:53.797Z,102361.39
2023-02-05T05:32:24.308Z,102363.20
2023-02-05T05:34:57.197Z,102374.98
2023-02-05T05:37:27.627Z,102377.38
2023-02-05T05:40:15.771Z,102383.36
2023-02-05T05:43:03.849Z,102386.62
2023-02-05T05:45:34.482Z,102394.15
2023-02-05T05:48:05.714Z,102394.21
2023-02-05T05:50:36.117Z,102397.03
2023-02-05T05:53:06.615Z,102400.60
2023-02-05T05:55:37.112Z,102398.34
2023-02-05T05:58:08.106Z,102393.44
2023-02-05T06:00:38.951Z,102392.86
2023-02-05T06:03:10.902Z,102395.23
2023-02-05T06:05:41.305Z,102400.41
2023-02-05T06:08:11.713Z,102397.63
2023-02-05T06:10:42.285Z,102393.11
2023-02-05T06:13:12.959Z,102390.18
2023-02-05T06:15:43.603Z,102390.45
2023-02-05T06:18:14.045Z,102392.77
2023-02-05T06:20:44.548Z,102397.54
2023-02-05T06:23:14.970Z,102405.09
2023-02-05T06:25:46.608Z,102415.86
2023-02-05T06:28:17.135Z,102411.51
2023-02-05T06:30:47.978Z,102414.23
2023-02-05T06:33:18.623Z,102410.86
2023-02-05T06:35:49.205Z,102414.28
2023-02-05T06:38:19.681Z,102415.63
2023-02-05T06:40:51.288Z,102416.52
2023-02-05T06:43:21.693Z,102423.37
2023-02-05T06:45:52.262Z,102424.23
2023-02-05T06:48:23.021Z,102424.80
2023-02-05T06:50:53.440Z,102426.54
2023-02-05T06:53:23.870Z,102425.97
2023-02-05T06:55:54.280Z,102425.02
2023-02-05T06:58:24.732Z,102433.84
2023-02-05T07:00:55.235Z,102439.48
2023-02-05T07:03:25.675Z,102445.83
2023-02-05T07:05:56.137Z,102454.29
2023-02-05T07:08:26.558Z,102458.81
2023-02-05T07:10:57.062Z,102458.89
2023-02-05T07:13:27.683Z,102466.92
2023-02-05T07:15:58.321Z,102468.67
2023-02-05T07:18:28.956Z,102469.36
2023-02-05T07:20:59.391Z,102477.55
2023-02-05T07:23:29.840Z,102482.98
2023-02-05T07:26:00.505Z,102488.23
2023-02-05T07:28:31.074Z,102491.42
2023-02-05T07:31:07.973Z,102488.56
2023-02-05T07:33:39.012Z,102486.58
2023-02-05T07:36:13.463Z,102484.46
2023-02-05T07:38:44.448Z,102485.27
2023-02-05T07:41:16.991Z,102485.96
2023-02-05T07:43:47.655Z,102488.73
2023-02-05T07:46:18.110Z,102492.38
2023-02-05T07:48:48.571Z,102484.93
2023-02-05T07:51:21.718Z,102491.94
2023-02-05T07:53:53.359Z,102491.52
2023-02-05T07:56:25.912Z,102489.02
2023-02-05T07:58:56.769Z,102488.34
2023-02-05T08:01:27.212Z,102492.08
2023-02-05T08:03:57.876Z,102491.80
2023-02-05T08:06:28.769Z,102488.23
2023-02-05T08:08:59.699Z,102487.61
2023-02-05T08:11:32.345Z,102486.13
2023-02-05T08:14:03.329Z,102484.30
2023-02-05T08:16:34.365Z,102483.52
2023-02-05T08:19:05.194Z,102484.16
2023-02-05T08:21:35.640Z,102485.05
2023-02-05T08:24:06.767Z,102486.17
2023-02-05T08:26:37.512Z,102488.92
2023-02-05T08:29:08.945Z,102489.48
2023-02-05T08:31:39.799Z,102484.45
2023-02-05T08:34:10.237Z,102488.05
2023-02-05T08:36:40.691Z,102488.88
2023-02-05T08:39:11.120Z,102489.09
2023-02-05T08:41:41.542Z,102485.44
2023-02-05T08:44:12.013Z,102486.40
2023-02-05T08:46:49.780Z,102484.94
2023-02-05T08:49:21.305Z,102488.67
2023-02-05T08:51:52.132Z,102494.12
2023-02-05T08:54:22.622Z,102490.88
2023-02-05T08:56:54.099Z,102494.61
2023-02-05T08:59:24.615Z,102490.65
2023-02-05T09:01:55.049Z,102486.52
2023-02-05T09:04:25.557Z,102485.54
2023-02-05T09:06:57.041Z,102480.58
2023-02-05T09:09:27.724Z,102478.47
2023-02-05T09:11:58.725Z,102482.05
2023-02-05T09:14:36.113Z,102475.77
2023-02-05T09:17:07.800Z,102469.86
2023-02-05T09:19:39.118Z,102470.48
2023-02-05T09:22:10.492Z,102462.91
2023-02-05T09:24:40.965Z,102465.92
2023-02-05T09:27:14.309Z,102466.88
2023-02-05T09:29:45.133Z,102465.66
2023-02-05T09:32:15.560Z,102466.32
2023-02-05T09:34:46.361Z,102467.79
2023-02-05T09:37:16.916Z,102467.31
2023-02-05T09:40:20.125Z,102465.52
2023-02-05T09:42:47.000Z,102467.87
2023-02-05T09:45:36.729Z,102468.65
2023-02-05T09:48:29.806Z,102468.63
2023-02-05T09:51:01.163Z,102470.98
2023-02-05T09:53:39.702Z,102469.84
2023-02-05T09:56:15.026Z,102467.98
2023-02-05T09:58:48.882Z,102464.20
2023-02-05T10:01:28.618Z,102459.87
2023-02-05T10:04:03.364Z,102458.15
2023-02-05T10:07:01.610Z,102456.30
2023-02-05T10:10:11.522Z,102454.27
2023-02-05T10:12:54.733Z,102444.27
2023-02-05T10:15:44.555Z,102441.09
2023-02-05T10:18:28.160Z,102440.86
2023-02-05T10:21:10.158Z,102432.55
2023-02-05T10:24:07.426Z,102435.02
2023-02-05T10:26:47.405Z,102431.86
2023-02-05T10:29:34.492Z,102428.30
2023-02-05T10:32:19.470Z,102429.19
2023-02-05T10:34:57.810Z,102431.37
2023-02-05T10:37:43.256Z,102433.94
2023-02-05T10:40:21.003Z,102437.09
2023-02-05T10:42:56.398Z,102435.30
2023-02-05T10:45:30.319Z,102433.86
2023-02-05T10:48:08.414Z,102430.30
2023-02-05T10:50:54.592Z,102432.70
2023-02-05T10:53:28.119Z,102430.00
2023-02-05T10:56:00.169Z,102434.58
2023-02-05T10:58:49.050Z,102433.40
2023-02-05T11:01:21.872Z,102433.66
2023-02-05T11:03:57.815Z,102433.55
2023-02-05T11:06:31.577Z,102431.52
2023-02-05T11:09:02.050Z,102428.67
2023-02-05T11:11:33.779Z,102423.95
2023-02-05T11:14:21.829Z,102423.77
2023-02-05T11:16:54.427Z,102428.11
2023-02-05T11:19:24.605Z,102430.94
2023-02-05T11:21:58.031Z,102432.00
2023-02-05T11:24:31.958Z,102436.82
2023-02-05T11:27:31.546Z,102437.20
2023-02-05T11:30:49.568Z,102431.20
2023-02-05T11:33:28.599Z,102436.58
2023-02-05T11:36:02.911Z,102434.77
2023-02-05T11:38:46.922Z,102430.55
2023-02-05T11:41:29.479Z,102431.08
2023-02-05T11:44:03.129Z,102426.36
2023-02-05T11:46:43.981Z,102426.08
2023-02-05T11:49:23.530Z,102425.80
2023-02-05T11:51:56.667Z,102421.92
2023-02-05T11:54:31.708Z,102424.36
2023-02-05T11:57:24.151Z,102425.55
2023-02-05T12:00:00.227Z,102422.54
2023-02-05T12:02:36.740Z,102417.98
2023-02-05T12:05:19.484Z,102417.16
2023-02-05T12:07:58.028Z,102418.77
2023-02-05T12:10:38.374Z,102414.34
2023-02-05T12:13:19.957Z,102414.19
2023-02-05T12:15:59.869Z,102415.33
2023-02-05T12:18:39.972Z,102411.77
2023-02-05T12:21:20.149Z,102413.80
2023-02-05T12:24:16.167Z,102412.63
2023-02-05T12:26:50.177Z,102408.83
2023-02-05T12:29:38.980Z,102402.45
2023-02-05T12:32:23.192Z,102397.65
2023-02-05T12:35:14.944Z,102398.04
2023-02-05T12:37:54.520Z,102396.44
2023-02-05T12:40:40.521Z,102390.53
2023-02-05T12:43:23.952Z,102393.19
2023-02-05T12:46:00.775Z,102389.10
2023-02-05T12:48:54.293Z,102387.00
2023-02-05T12:51:35.468Z,102384.73
2023-02-05T12:54:23.833Z,102389.86
2023-02-05T12:57:01.264Z,102385.85
2023-02-05T12:59:40.052Z,102390.77
2023-02-05T13:02:20.856Z,102394.20
2023-02-05T13:04:59.373Z,102393.02
2023-02-05T13:07:34.574Z,102391.64
2023-02-05T13:10:08.205Z,102385.29
2023-02-05T13:12:43.822Z,102382.55
2023-02-05T13:15:21.015Z,102386.09
2023-02-05T13:17:59.674Z,102384.36
2023-02-05T13:20:51.781Z,102390.23
2023-02-05T13:23:40.385Z,102394.65
2023-02-05T13:26:31.838Z,102390.95
2023-02-05T13:29:07.376Z,102393.44
2023-02-05T13:31:42.243Z,102393.55
2023-02-05T13:34:16.404Z,102386.77
2023-02-05T13:37:12.925Z,102383.18
2023-02-05T13:40:05.571Z,102377.73
2023-02-05T13:42:53.654Z,102374.14
2023-02-05T13:46:02.301Z,102379.59
2023-02-05T13:49:15.301Z,102382.35
2023-02-05T13:51:55.307Z,102380.77
2023-02-05T13:54:46.671Z,102380.84
2023-02-05T13:57:46.538Z,102377.42
2023-02-05T14:00:18.252Z,102376.63
2023-02-05T14:02:54.493Z,102376.20
2023-02-05T14:05:34.036Z,102376.84
2023-02-05T14:08:05.753Z,102375.59
2023-02-05T14:10:41.803Z,102372.41
2023-02-05T14:13:24.186Z,102379.22
2023-02-05T14:15:57.400Z,102379.88
2023-02-05T14:18:51.220Z,102377.97
2023-02-05T14:22:01.236Z,102378.95
2023-02-05T14:24:43.113Z,102370.55
2023-02-05T14:27:44.251Z,102367.85
2023-02-05T14:30:45.863Z,102368.48
2023-02-05T14:33:42.586Z,102367.54
2023-02-05T14:36:39.990Z,102366.52
2023-02-05T14:39:26.230Z,102368.55
2023-02-05T14:42:00.772Z,102374.21
2023-02-05T14:44:34.347Z,102371.39
2023-02-05T14:47:10.312Z,102367.75
2023-02-05T14:49:44.378Z,102371.80
2023-02-05T14:52:27.135Z,102370.73
2023-02-05T14:55:02.263Z,102369.94
2023-02-05T14:57:48.259Z,102375.88
2023-02-05T15:00:35.721Z,102384.77
2023-02-05T15:03:37.768Z,102388.30
2023-02-05T15:06:15.947Z,102393.20
2023-02-05T15:08:54.237Z,102393.51
2023-02-05T15:11:34.848Z,102395.66
2023-02-05T15:14:41.422Z,102393.69
2023-02-05T15:17:46.398Z,102401.14
2023-02-05T15:20:32.443Z,102403.28
2023-02-05T15:23:17.932Z,102407.42
2023-02-05T15:25:56.245Z,102403.98
2023-02-05T15:28:35.381Z,102402.07
2023-02-05T15:31:27.275Z,102403.31
2023-02-05T15:34:07.773Z,102407.88
2023-02-05T15:36:42.941Z,102412.95
2023-02-05T15:39:24.300Z,102412.27
2023-02-05T15:41:58.856Z,102414.72
2023-02-05T15:44:31.820Z,102410.41
2023-02-05T15:47:06.742Z,102405.15
2023-02-05T15:49:41.800Z,102401.08
2023-02-05T15:52:21.862Z,102401.07
2023-02-05T15:54:54.793Z,102401.27
2023-02-05T15:57:28.328Z,102405.92
2023-02-05T16:00:01.280Z,102410.86
2023-02-05T16:02:34.857Z,102410.28
2023-02-05T16:05:17.424Z,102408.70
2023-02-05T16:07:55.098Z,102413.59
2023-02-05T16:10:28.424Z,102419.01
2023-02-05T16:13:03.300Z,102421.98
2023-02-05T16:15:37.956Z,102417.98
2023-02-05T16:18:14.574Z,102418.05
2023-02-05T16:20:48.030Z,102416.54
2023-02-05T16:23:28.893Z,102413.39
2023-02-05T16:26:02.399Z,102415.65
2023-02-05T16:28:39.085Z,102411.34
2023-02-05T16:31:15.687Z,102412.92
2023-02-05T16:33:52.445Z,102419.30
2023-02-05T16:36:25.933Z,102425.72
2023-02-05T16:38:59.791Z,102424.20
2023-02-05T16:41:34.870Z,102426.83
2023-02-05T16:44:07.749Z,102425.61
2023-02-05T16:46:38.619Z,102430.81
2023-02-05T16:49:31.449Z,102429.62
2023-02-05T16:52:01.926Z,102428.93
2023-02-05T16:54:38.954Z,102429.38
2023-02-05T16:57:13.570Z,102433.32
2023-02-05T16:59:52.696Z,102438.99
2023-02-05T17:02:32.994Z,102435.85
2023-02-05T17:05:06.916Z,102435.51
2023-02-05T17:07:37.704Z,102437.27
2023-02-05T17:10:23.131Z,102437.33
2023-02-05T17:13:01.058Z,102442.81
2023-02-05T17:15:40.528Z,102443.66
2023-02-05T17:18:26.827Z,102447.66
2023-02-05T17:21:22.323Z,102448.62
2023-02-05T17:23:54.240Z,102440.61
2023-02-05T17:26:25.558Z,102440.05
2023-02-05T17:28:58.347Z,102439.69
2023-02-05T17:31:29.744Z,102438.52
2023-02-05T17:34:00.720Z,102432.86
2023-02-05T17:36:31.228Z,102428.57
2023-02-05T17:39:01.652Z,102428.94
2023-02-05T17:41:55.526Z,102432.98
2023-02-05T17:44:25.969Z,102436.64
2023-02-05T17:46:56.421Z,102433.79
2023-02-05T17:49:27.129Z,102432.27
2023-02-05T17:51:57.634Z,102432.61
2023-02-05T17:54:28.537Z,102437.88
2023-02-05T17:57:05.813Z,102443.59
2023-02-05T17:59:36.235Z,102446.10
2023-02-05T18:02:07.197Z,102441.34
2023-02-05T18:04:37.677Z,102434.80
2023-02-05T18:07:26.726Z,102428.23
2023-02-05T18:09:58.371Z,102435.60
2023-02-05T18:12:29.068Z,102442.26
2023-02-05T18:14:59.692Z,102438.38
2023-02-05T18:17:30.126Z,102437.33
2023-02-05T18:20:00.551Z,102439.35
2023-02-05T18:22:31.297Z,102437.80
2023-02-05T18:25:01.714Z,102435.98
2023-02-05T18:27:32.120Z,102430.73
2023-02-05T18:30:02.562Z,102425.45
2023-02-05T18:32:33.023Z,102415.80
2023-02-05T18:35:04.135Z,102417.95
2023-02-05T18:37:36.862Z,102414.67
2023-02-05T18:40:06.542Z,102418.12
2023-02-05T18:42:37.077Z,102424.85
2023-02-05T18:45:09.037Z,102431.70
2023-02-05T18:47:39.546Z,102431.46
2023-02-05T18:50:11.779Z,102432.14
2023-02-05T18:52:42.213Z,102427.96
2023-02-05T18:55:13.549Z,102430.36
2023-02-05T18:57:43.980Z,102430.20
2023-02-05T19:00:16.968Z,102431.61
2023-02-05T19:02:47.581Z,102432.16
2023-02-05T19:05:18.335Z,102436.18
2023-02-05T19:07:48.757Z,102432.78
2023-02-05T19:10:20.376Z,102426.73
2023-02-05T19:12:51.084Z,102427.16
2023-02-05T19:15:21.869Z,102434.46
2023-02-05T19:17:52.496Z,102433.16
2023-02-05T19:20:23.316Z,102435.09
2023-02-05T19:22:56.057Z,102445.36
2023-02-05T19:25:25.036Z,102447.04
2023-02-05T19:27:55.839Z,102445.48
2023-02-05T19:30:26.306Z,102449.89
2023-02-05T19:32:56.946Z,102455.67
2023-02-05T19:35:27.507Z,102458.54
2023-02-05T19:37:58.518Z,102461.13
2023-02-05T19:40:29.072Z,102458.65
2023-02-05T19:42:59.778Z,102459.90
2023-02-05T19:45:30.318Z,102469.02
2023-02-05T19:48:01.115Z,102477.50
2023-02-05T19:50:31.598Z,102486.72
2023-02-05T19:53:02.025Z,102485.79
2023-02-05T19:55:32.908Z,102490.56
2023-02-05T19:58:03.832Z,102494.52
2023-02-05T20:00:34.616Z,102494.39
2023-02-05T20:03:05.360Z,102498.30
2023-02-05T20:05:38.405Z,102511.48
2023-02-05T20:08:08.845Z,102520.58
2023-02-05T20:10:39.265Z,102533.62
2023-02-05T20:13:11.094Z,102527.80
2023-02-05T20:15:41.668Z,102521.83
2023-02-05T20:18:12.159Z,102518.91
2023-02-05T20:20:43.834Z,102524.58
2023-02-05T20:23:14.270Z,102533.10
2023-02-05T20:25:44.725Z,102535.89
2023-02-05T20:28:15.165Z,102535.55
2023-02-05T20:31:03.379Z,102539.48
2023-02-05T20:33:34.018Z,102536.66
2023-02-05T20:36:08.784Z,102538.61
2023-02-05T20:38:39.535Z,102540.21
2023-02-05T20:41:18.049Z,102539.98
2023-02-05T20:43:49.073Z,102543.41
2023-02-05T20:46:19.885Z,102549.70
2023-02-05T20:48:50.947Z,102551.71
2023-02-05T20:51:23.337Z,102556.21
2023-02-05T20:53:57.147Z,102563.84
2023-02-05T20:56:29.536Z,102561.70
2023-02-05T20:59:03.073Z,102568.20
2023-02-05T21:01:35.182Z,102571.08
2023-02-05T21:04:07.746Z,102578.94
2023-02-05T21:06:40.556Z,102583.61
2023-02-05T21:09:11.892Z,102590.48
2023-02-05T21:11:42.604Z,102592.70
2023-02-05T21:14:13.662Z,102589.98
2023-02-05T21:16:44.530Z,102596.42
2023-02-05T21:19:14.986Z,102604.86
2023-02-05T21:21:45.581Z,102608.79
2023-02-05T21:24:17.390Z,102605.08
2023-02-05T21:26:50.000Z,102599.14
2023-02-05T21:29:21.979Z,102598.67
2023-02-05T21:31:55.524Z,102597.20
2023-02-05T21:34:29.374Z,102591.73
2023-02-05T21:36:59.828Z,102591.95
2023-02-05T21:39:30.431Z,102591.42
2023-02-05T21:42:00.822Z,102589.80
2023-02-05T21:44:31.749Z,102591.71
2023-02-05T21:47:02.409Z,102596.22
2023-02-05T21:49:33.212Z,102599.21
2023-02-05T21:52:03.654Z,102601.02
2023-02-05T21:54:34.376Z,102605.11
2023-02-05T21:57:04.971Z,102610.80
2023-02-05T21:59:35.391Z,102610.30
2023-02-05T22:02:05.900Z,102618.23
2023-02-05T22:04:36.347Z,102627.00
2023-02-05T22:07:06.970Z,102624.64
2023-02-05T22:09:37.475Z,102618.45
2023-02-05T22:12:08.424Z,102622.35
2023-02-05T22:14:38.859Z,102624.77
2023-02-05T22:17:09.275Z,102614.21
2023-02-05T22:19:39.705Z,102612.35
2023-02-05T22:22:10.140Z,102616.70
2023-02-05T22:24:40.555Z,102621.83
2023-02-05T22:27:11.339Z,102627.63
2023-02-05T22:29:41.738Z,102632.85
2023-02-05T22:32:12.213Z,102635.45
2023-02-05T22:34:43.660Z,102636.80
2023-02-05T22:37:14.218Z,102644.83
2023-02-05T22:39:45.320Z,102645.48
2023-02-05T22:42:17.637Z,102646.41
2023-02-05T22:44:49.245Z,102643.90
2023-02-05T22:47:19.657Z,102647.91
2023-02-05T22:49:50.080Z,102650.78
2023-02-05T22:52:20.492Z,102649.80
2023-02-05T22:54:50.932Z,102644.55
2023-02-05T22:57:21.343Z,102635.20
2023-02-05T22:59:51.796Z,102638.83
2023-02-05T23:02:22.198Z,102638.27
2023-02-05T23:04:53.658Z,102641.69
2023-02-05T23:07:24.086Z,102650.23
2023-02-05T23:09:54.493Z,102646.39
2023-02-05T23:12:25.316Z,102644.23
2023-02-05T23:14:55.884Z,102639.85
2023-02-05T23:17:26.473Z,102636.70
2023-02-05T23:19:56.913Z,102637.55
2023-02-05T23:22:27.356Z,102643.33
2023-02-05T23:24:58.219Z,102649.40
2023-02-05T23:27:29.341Z,102645.05
2023-02-05T23:29:59.916Z,102636.11
2023-02-05T23:32:30.426Z,102631.08
2023-02-05T23:35:00.944Z,102629.48
2023-02-05T23:37:31.357Z,102625.71
2023-02-05T23:40:01.784Z,102615.95
2023-02-05T23:42:32.213Z,102613.50
2023-02-05T23:45:02.690Z,102601.87
2023-02-05T23:47:33.109Z,102613.48
2023-02-05T23:50:03.596Z,102619.38
2023-02-05T23:52:34.022Z,102603.02
2023-02-05T23:55:04.632Z,102601.45
2023-02-05T23:57:35.101Z,102610.98
